createdAt,value
2018-02-18T00:00:01.901Z,10.35
2018-02-18T00:02:28.168Z,11.18
2018-02-18T00:04:54.445Z,11.10
2018-02-18T00:07:20.614Z,9.23
2018-02-18T00:09:46.813Z,9.63
2018-02-18T00:12:13.232Z,10.38
2018-02-18T00:14:40.316Z,9.15
2018-02-18T00:17:06.477Z,9.80
2018-02-18T00:19:33.408Z,8.23
2018-02-18T00:21:59.619Z,9.70
2018-02-18T00:24:25.761Z,9.85
2018-02-18T00:26:51.964Z,9.95
2018-02-18T00:29:18.124Z,9.60
2018-02-18T00:31:44.387Z,10.20
2018-02-18T00:34:10.548Z,11.57
2018-02-18T00:36:36.724Z,10.77
2018-02-18T00:39:02.915Z,11.77
2018-02-18T00:41:29.120Z,11.00
2018-02-18T00:43:56.048Z,10.80
2018-02-18T00:46:22.231Z,9.85
2018-02-18T00:48:48.432Z,9.55
2018-02-18T00:51:14.588Z,9.07
2018-02-18T00:53:40.835Z,9.50
2018-02-18T00:56:07.766Z,10.68
2018-02-18T00:58:33.954Z,10.82
2018-02-18T01:01:00.189Z,10.48
2018-02-18T01:03:26.587Z,9.95
2018-02-18T01:05:53.543Z,10.40
2018-02-18T01:08:20.448Z,10.68
2018-02-18T01:10:46.619Z,9.57
2018-02-18T01:13:13.524Z,10.90
2018-02-18T01:15:39.707Z,11.45
2018-02-18T01:18:05.873Z,9.32
2018-02-18T01:20:32.035Z,9.73
2018-02-18T01:22:58.332Z,8.80
2018-02-18T01:25:24.465Z,9.68
2018-02-18T01:27:50.700Z,7.68
2018-02-18T01:30:17.148Z,9.38
2018-02-18T01:32:43.325Z,8.93
2018-02-18T01:35:10.227Z,9.02
2018-02-18T01:37:36.428Z,7.22
2018-02-18T01:40:03.346Z,7.47
2018-02-18T01:42:30.300Z,7.55
2018-02-18T01:44:56.480Z,7.93
2018-02-18T01:47:22.664Z,8.30
2018-02-18T01:49:48.897Z,8.10
2018-02-18T01:52:15.039Z,8.75
2018-02-18T01:54:41.224Z,7.95
2018-02-18T01:57:07.664Z,7.55
2018-02-18T01:59:33.828Z,7.53
2018-02-18T02:02:00.740Z,7.97
2018-02-18T02:04:27.596Z,7.47
2018-02-18T02:06:53.760Z,7.67
2018-02-18T02:09:19.908Z,7.40
2018-02-18T02:11:52.943Z,7.10
2018-02-18T02:14:19.925Z,7.20
2018-02-18T02:16:46.077Z,7.22
2018-02-18T02:19:13.003Z,7.28
2018-02-18T02:21:39.212Z,8.40
2018-02-18T02:24:05.388Z,7.68
2018-02-18T02:26:31.611Z,7.72
2018-02-18T02:28:57.775Z,6.65
2018-02-18T02:31:24.689Z,6.70
2018-02-18T02:33:50.896Z,6.75
2018-02-18T02:36:17.056Z,6.20
2018-02-18T02:38:43.229Z,6.80
2018-02-18T02:41:10.140Z,7.82
2018-02-18T02:43:36.365Z,7.60
2018-02-18T02:46:02.541Z,7.30
2018-02-18T02:48:28.809Z,7.40
2018-02-18T02:50:55.117Z,7.25
2018-02-18T02:53:22.033Z,6.90
2018-02-18T02:55:48.176Z,5.75
2018-02-18T02:58:14.414Z,6.75
2018-02-18T03:00:40.605Z,6.60
2018-02-18T03:03:06.851Z,6.62
2018-02-18T03:05:33.338Z,7.35
2018-02-18T03:08:00.330Z,6.43
2018-02-18T03:10:26.492Z,6.68
2018-02-18T03:12:52.664Z,7.18
2018-02-18T03:15:19.772Z,7.10
2018-02-18T03:17:46.784Z,6.40
2018-02-18T03:20:12.948Z,7.05
2018-02-18T03:22:39.153Z,6.65
2018-02-18T03:25:06.072Z,6.87
2018-02-18T03:27:32.220Z,7.20
2018-02-18T03:29:59.152Z,6.70
2018-02-18T03:32:25.312Z,6.18
2018-02-18T03:34:51.518Z,6.55
2018-02-18T03:37:17.669Z,7.37
2018-02-18T03:39:43.848Z,8.00
2018-02-18T03:42:10.171Z,8.40
2018-02-18T03:44:37.207Z,7.32
2018-02-18T03:47:04.152Z,7.50
2018-02-18T03:49:30.312Z,7.15
2018-02-18T03:51:56.566Z,7.85
2018-02-18T03:54:22.708Z,7.05
2018-02-18T03:56:48.911Z,6.70
2018-02-18T03:59:15.256Z,6.93
2018-02-18T04:01:41.443Z,8.20
2018-02-18T04:04:08.369Z,7.47
2018-02-18T04:06:34.626Z,7.55
2018-02-18T04:09:00.777Z,6.25
2018-02-18T04:11:26.939Z,7.50
2018-02-18T04:13:53.328Z,7.40
2018-02-18T04:16:20.253Z,8.80
2018-02-18T04:18:46.383Z,6.65
2018-02-18T04:21:17.998Z,7.68
2018-02-18T04:23:44.308Z,7.55
2018-02-18T04:26:11.220Z,7.82
2018-02-18T04:28:37.424Z,7.70
2018-02-18T04:31:03.611Z,6.80
2018-02-18T04:33:30.568Z,7.07
2018-02-18T04:35:57.528Z,7.15
2018-02-18T04:38:24.428Z,7.50
2018-02-18T04:40:50.592Z,7.97
2018-02-18T04:43:17.104Z,7.25
2018-02-18T04:45:43.300Z,7.62
2018-02-18T04:48:09.467Z,7.55
2018-02-18T04:50:35.643Z,7.40
2018-02-18T04:53:02.568Z,6.93
2018-02-18T04:55:28.704Z,7.12
2018-02-18T04:57:55.128Z,8.32
2018-02-18T05:00:21.304Z,8.90
2018-02-18T05:02:47.449Z,7.10
2018-02-18T05:05:13.650Z,7.75
2018-02-18T05:07:39.857Z,7.37
2018-02-18T05:10:06.036Z,7.90
2018-02-18T05:12:32.248Z,7.80
2018-02-18T05:14:58.420Z,8.50
2018-02-18T05:17:24.664Z,8.98
2018-02-18T05:19:50.844Z,6.55
2018-02-18T05:22:17.034Z,9.20
2018-02-18T05:24:43.947Z,6.57
2018-02-18T05:27:10.343Z,6.25
2018-02-18T05:29:36.481Z,7.75
2018-02-18T05:32:02.648Z,6.57
2018-02-18T05:34:28.820Z,8.88
2018-02-18T05:36:54.991Z,7.75
2018-02-18T05:39:21.951Z,7.20
2018-02-18T05:41:48.976Z,7.00
2018-02-18T05:44:15.208Z,6.93
2018-02-18T05:46:41.363Z,6.25
2018-02-18T05:49:07.888Z,6.30
2018-02-18T05:51:34.088Z,7.60
2018-02-18T05:54:00.994Z,7.70
2018-02-18T05:56:27.183Z,7.40
2018-02-18T05:58:53.380Z,7.28
2018-02-18T06:01:20.288Z,8.15
2018-02-18T06:03:46.541Z,7.53
2018-02-18T06:06:12.712Z,8.10
2018-02-18T06:08:39.960Z,6.95
2018-02-18T06:11:06.143Z,7.97
2018-02-18T06:13:32.324Z,6.87
2018-02-18T06:15:58.483Z,8.15
2018-02-18T06:18:25.380Z,7.65
2018-02-18T06:20:51.551Z,6.20
2018-02-18T06:23:18.685Z,6.78
2018-02-18T06:25:45.016Z,6.85
2018-02-18T06:28:11.941Z,6.15
2018-02-18T06:30:38.164Z,6.00
2018-02-18T06:33:04.356Z,6.60
2018-02-18T06:35:30.556Z,5.95
2018-02-18T06:37:56.751Z,6.47
2018-02-18T06:40:23.667Z,6.90
2018-02-18T06:42:50.585Z,6.78
2018-02-18T06:45:17.566Z,6.72
2018-02-18T06:47:43.736Z,7.20
2018-02-18T06:50:09.931Z,5.50
2018-02-18T06:52:36.357Z,7.10
2018-02-18T06:55:02.532Z,6.18
2018-02-18T06:57:29.420Z,6.93
2018-02-18T06:59:55.632Z,5.60
2018-02-18T07:02:21.808Z,6.75
2018-02-18T07:04:47.987Z,7.35
2018-02-18T07:07:14.916Z,7.07
2018-02-18T07:09:41.068Z,7.35
2018-02-18T07:12:07.972Z,6.55
2018-02-18T07:14:34.228Z,6.70
2018-02-18T07:17:01.135Z,7.32
2018-02-18T07:19:27.350Z,6.70
2018-02-18T07:21:53.503Z,5.95
2018-02-18T07:24:19.676Z,6.28
2018-02-18T07:26:45.853Z,7.03
2018-02-18T07:29:12.066Z,7.07
2018-02-18T07:31:38.259Z,6.35
2018-02-18T07:34:04.472Z,7.28
2018-02-18T07:36:30.638Z,6.60
2018-02-18T07:38:56.788Z,6.53
2018-02-18T07:41:24.235Z,6.03
2018-02-18T07:43:50.600Z,6.62
2018-02-18T07:46:16.848Z,6.47
2018-02-18T07:48:43.050Z,7.18
2018-02-18T07:51:09.243Z,6.00
2018-02-18T07:53:35.614Z,6.05
2018-02-18T07:56:01.823Z,5.95
2018-02-18T07:58:27.992Z,6.10
2018-02-18T08:00:55.199Z,5.82
2018-02-18T08:03:21.381Z,5.68
2018-02-18T08:05:47.568Z,6.50
2018-02-18T08:08:13.748Z,6.10
2018-02-18T08:10:40.064Z,5.80
2018-02-18T08:13:06.229Z,5.93
2018-02-18T08:15:32.524Z,6.50
2018-02-18T08:17:58.701Z,4.90
2018-02-18T08:20:24.940Z,5.90
2018-02-18T08:22:51.881Z,5.00
2018-02-18T08:25:18.799Z,4.40
2018-02-18T08:27:45.779Z,4.93
2018-02-18T08:30:13.133Z,4.63
2018-02-18T08:32:40.076Z,4.57
2018-02-18T08:35:07.003Z,4.43
2018-02-18T08:37:33.195Z,5.30
2018-02-18T08:39:59.389Z,4.23
2018-02-18T08:42:25.560Z,4.80
2018-02-18T08:44:51.736Z,4.63
2018-02-18T08:47:18.012Z,4.87
2018-02-18T08:49:44.216Z,4.40
2018-02-18T08:52:11.136Z,4.30
2018-02-18T08:54:37.316Z,4.50
2018-02-18T09:00:10.644Z,3.93
2018-02-18T09:02:36.835Z,4.20
2018-02-18T09:05:03.005Z,4.93
2018-02-18T09:07:30.080Z,3.30
2018-02-18T09:09:56.324Z,3.77
2018-02-18T09:12:22.536Z,3.53
2018-02-18T09:14:48.748Z,3.90
2018-02-18T09:17:15.681Z,4.53
2018-02-18T09:19:42.624Z,5.03
2018-02-18T09:22:08.813Z,4.03
2018-02-18T09:24:35.268Z,4.37
2018-02-18T09:27:02.232Z,4.50
2018-02-18T09:29:28.636Z,3.30
2018-02-18T09:31:54.841Z,4.07
2018-02-18T09:34:21.787Z,3.50
2018-02-18T09:36:48.696Z,3.67
2018-02-18T09:39:15.035Z,3.70
2018-02-18T09:41:41.209Z,3.80
2018-02-18T09:44:08.121Z,3.30
2018-02-18T09:46:34.304Z,2.90
2018-02-18T09:49:01.212Z,4.30
2018-02-18T09:51:27.364Z,2.97
2018-02-18T09:53:53.782Z,3.03
2018-02-18T09:56:19.975Z,3.70
2018-02-18T09:58:46.200Z,3.07
2018-02-18T10:01:12.375Z,2.87
2018-02-18T10:03:38.913Z,3.00
2018-02-18T10:06:05.092Z,3.10
2018-02-18T10:08:31.288Z,4.13
2018-02-18T10:10:57.695Z,3.70
2018-02-18T10:13:24.587Z,3.10
2018-02-18T10:15:50.756Z,3.33
2018-02-18T10:18:17.668Z,3.70
2018-02-18T10:20:43.935Z,3.40
2018-02-18T10:23:10.867Z,2.90
2018-02-18T10:25:37.068Z,3.47
2018-02-18T10:28:03.246Z,3.17
2018-02-18T10:30:29.418Z,3.10
2018-02-18T10:32:56.308Z,2.90
2018-02-18T10:35:22.828Z,3.00
2018-02-18T10:37:48.988Z,3.00
2018-02-18T10:40:15.927Z,3.40
2018-02-18T10:42:42.096Z,2.97
2018-02-18T10:45:08.341Z,3.50
2018-02-18T10:47:34.755Z,3.00
2018-02-18T10:50:01.003Z,3.93
2018-02-18T10:52:27.169Z,3.20
2018-02-18T10:54:53.361Z,2.90
2018-02-18T10:57:19.570Z,3.60
2018-02-18T10:59:45.951Z,3.67
2018-02-18T11:02:12.115Z,3.50
2018-02-18T11:04:38.348Z,2.97
2018-02-18T11:07:04.516Z,3.67
2018-02-18T11:09:31.501Z,3.40
2018-02-18T11:11:57.866Z,3.03
2018-02-18T11:14:24.109Z,3.17
2018-02-18T11:19:53.964Z,3.23
2018-02-18T11:22:20.152Z,3.20
2018-02-18T11:24:46.328Z,3.73
2018-02-18T11:27:12.691Z,3.90
2018-02-18T11:29:38.936Z,3.23
2018-02-18T11:32:05.845Z,3.50
2018-02-18T11:34:32.556Z,3.80
2018-02-18T11:36:58.745Z,3.37
2018-02-18T11:39:25.393Z,3.60
2018-02-18T11:41:51.652Z,3.20
2018-02-18T11:44:17.873Z,5.00
2018-02-18T11:46:44.977Z,4.30
2018-02-18T11:49:11.176Z,4.10
2018-02-18T11:51:37.392Z,4.63
2018-02-18T11:54:04.400Z,4.03
2018-02-18T11:56:30.925Z,3.90
2018-02-18T11:58:57.120Z,4.20
2018-02-18T12:01:24.073Z,4.27
2018-02-18T12:03:50.985Z,5.53
2018-02-18T12:06:17.199Z,5.30
2018-02-18T12:08:43.381Z,5.87
2018-02-18T12:11:10.303Z,5.90
2018-02-18T12:13:36.492Z,5.53
2018-02-18T12:16:02.659Z,6.20
2018-02-18T12:18:28.820Z,6.47
2018-02-18T12:20:55.065Z,5.57
2018-02-18T12:23:22.002Z,5.30
2018-02-18T12:25:48.956Z,5.60
2018-02-18T12:28:15.177Z,6.50
2018-02-18T12:30:41.368Z,6.13
2018-02-18T12:33:07.557Z,5.80
2018-02-18T12:35:33.707Z,5.43
2018-02-18T12:38:01.161Z,6.70
2018-02-18T12:40:27.336Z,5.87
2018-02-18T12:42:54.284Z,7.13
2018-02-18T12:45:20.455Z,5.10
2018-02-18T12:47:46.652Z,6.40
2018-02-18T12:50:13.156Z,8.70
2018-02-18T12:52:40.083Z,5.80
2018-02-18T12:55:06.228Z,5.70
2018-02-18T12:57:32.420Z,6.33
2018-02-18T13:00:01.234Z,6.90
2018-02-18T13:02:27.686Z,6.50
2018-02-18T13:04:55.349Z,6.77
2018-02-18T13:07:21.549Z,7.53
2018-02-18T13:09:47.854Z,7.43
2018-02-18T13:12:14.080Z,6.70
2018-02-18T13:14:41.004Z,6.20
2018-02-18T13:17:07.241Z,6.47
2018-02-18T13:19:33.449Z,7.10
2018-02-18T13:21:59.622Z,7.47
2018-02-18T13:24:25.844Z,7.50
2018-02-18T13:26:52.347Z,7.10
2018-02-18T13:29:18.518Z,7.30
2018-02-18T13:31:44.713Z,8.10
2018-02-18T13:34:11.052Z,7.03
2018-02-18T13:36:37.239Z,8.00
2018-02-18T13:39:03.455Z,7.77
2018-02-18T13:41:29.652Z,7.17
2018-02-18T13:43:55.990Z,7.40
2018-02-18T13:46:22.167Z,7.20
2018-02-18T13:48:49.108Z,7.67
2018-02-18T13:51:15.596Z,8.00
2018-02-18T13:53:41.862Z,7.90
2018-02-18T13:56:08.048Z,7.60
2018-02-18T13:58:35.121Z,8.00
2018-02-18T14:01:02.081Z,7.40
2018-02-18T14:03:28.316Z,7.77
2018-02-18T14:05:54.705Z,7.90
2018-02-18T14:08:20.900Z,7.93
2018-02-18T14:10:47.095Z,7.53
2018-02-18T14:13:14.065Z,7.70
2018-02-18T14:15:40.525Z,7.33
2018-02-18T14:18:06.724Z,8.83
2018-02-18T14:20:33.817Z,7.37
2018-02-18T14:23:00.005Z,8.63
2018-02-18T14:25:27.142Z,8.30
2018-02-18T14:27:53.844Z,7.47
2018-02-18T14:30:20.017Z,8.07
2018-02-18T14:32:46.215Z,8.73
2018-02-18T14:35:12.416Z,7.23
2018-02-18T14:37:39.350Z,8.50
2018-02-18T14:40:05.540Z,8.33
2018-02-18T14:45:45.491Z,6.97
2018-02-18T14:48:24.353Z,8.43
2018-02-18T14:51:03.774Z,8.80
2018-02-18T14:53:43.101Z,8.20
2018-02-18T14:56:30.302Z,7.17
2018-02-18T14:58:57.288Z,8.43
2018-02-18T15:01:23.475Z,7.70
2018-02-18T15:03:49.698Z,7.93
2018-02-18T15:06:16.183Z,7.40
2018-02-18T15:08:43.145Z,8.30
2018-02-18T15:11:09.365Z,8.10
2018-02-18T15:13:35.596Z,8.37
2018-02-18T15:16:02.383Z,8.23
2018-02-18T15:18:28.808Z,7.30
2018-02-18T15:20:55.037Z,8.03
2018-02-18T15:23:21.195Z,8.60
2018-02-18T15:25:47.387Z,7.80
2018-02-18T15:28:13.634Z,7.30
2018-02-18T15:30:39.836Z,7.67
2018-02-18T15:33:06.056Z,7.30
2018-02-18T15:35:32.342Z,7.53
2018-02-18T15:37:59.534Z,6.90
2018-02-18T15:40:25.727Z,8.40
2018-02-18T15:42:51.916Z,7.23
2018-02-18T15:45:18.998Z,7.60
2018-02-18T15:47:46.212Z,7.00
2018-02-18T15:50:12.522Z,7.87
2018-02-18T15:52:38.925Z,7.97
2018-02-18T15:55:05.101Z,7.53
2018-02-18T15:57:32.036Z,8.70
2018-02-18T15:59:58.646Z,7.47
2018-02-18T16:02:24.932Z,8.40
2018-02-18T16:04:51.194Z,7.27
2018-02-18T16:07:18.237Z,6.53
2018-02-18T16:09:44.450Z,8.57
2018-02-18T16:12:10.695Z,8.10
2018-02-18T16:14:37.611Z,8.13
2018-02-18T16:17:03.944Z,8.40
2018-02-18T16:19:30.117Z,10.53
2018-02-18T16:21:57.044Z,11.93
2018-02-18T16:24:23.994Z,8.03
2018-02-18T16:26:50.960Z,10.50
2018-02-18T16:29:17.856Z,10.53
2018-02-18T16:31:44.040Z,11.40
2018-02-18T16:34:10.272Z,12.50
2018-02-18T16:36:37.200Z,11.73
2018-02-18T16:39:04.331Z,15.20
2018-02-18T16:41:30.508Z,13.30
2018-02-18T16:43:57.536Z,9.50
2018-02-18T16:46:24.299Z,8.60
2018-02-18T16:48:51.253Z,8.70
2018-02-18T16:51:18.186Z,9.40
2018-02-18T16:53:44.424Z,10.37
2018-02-18T16:56:10.644Z,9.80
2018-02-18T16:58:36.828Z,9.40
2018-02-18T17:01:03.744Z,9.53
2018-02-18T17:03:30.689Z,8.13
2018-02-18T17:05:56.875Z,9.20
2018-02-18T17:08:23.096Z,9.50
2018-02-18T17:10:49.307Z,7.93
2018-02-18T17:13:15.596Z,8.70
2018-02-18T17:15:41.801Z,9.30
2018-02-18T17:18:08.285Z,9.00
2018-02-18T17:20:34.452Z,7.57
2018-02-18T17:23:00.628Z,9.47
2018-02-18T17:25:26.836Z,8.80
2018-02-18T17:27:53.090Z,12.17
2018-02-18T17:30:19.347Z,12.53
2018-02-18T17:32:46.180Z,13.87
2018-02-18T17:35:12.400Z,10.43
2018-02-18T17:37:51.162Z,9.67
2018-02-18T17:40:18.836Z,9.60
2018-02-18T17:42:45.796Z,9.70
2018-02-18T17:45:12.802Z,10.40
2018-02-18T17:47:39.429Z,11.70
2018-02-18T17:50:05.680Z,12.30
2018-02-18T17:52:31.959Z,12.53
2018-02-18T17:54:58.945Z,12.57
2018-02-18T17:57:37.572Z,14.50
2018-02-18T18:00:03.817Z,12.40
2018-02-18T18:02:29.992Z,10.87
2018-02-18T18:04:57.045Z,11.50
2018-02-18T18:07:24.036Z,12.47
2018-02-18T18:09:50.320Z,11.57
2018-02-18T18:12:16.557Z,11.87
2018-02-18T18:14:42.785Z,11.13
2018-02-18T18:17:09.341Z,10.53
2018-02-18T18:19:35.560Z,11.60
2018-02-18T18:22:01.860Z,10.80
2018-02-18T18:24:28.055Z,10.67
2018-02-18T18:26:55.008Z,11.30
2018-02-18T18:29:21.197Z,10.00
2018-02-18T18:31:47.416Z,11.87
2018-02-18T18:34:14.327Z,12.53
2018-02-18T18:36:40.520Z,12.27
2018-02-18T18:39:06.756Z,12.77
2018-02-18T18:41:33.226Z,10.50
2018-02-18T18:43:59.545Z,12.30
2018-02-18T18:46:25.822Z,13.70
2018-02-18T18:48:52.484Z,14.53
2018-02-18T18:51:18.756Z,15.20
2018-02-18T18:53:45.036Z,15.18
2018-02-18T18:56:11.336Z,17.80
2018-02-18T18:58:37.532Z,16.10
2018-02-18T19:01:03.761Z,17.03
2018-02-18T19:03:30.272Z,15.90
2018-02-18T19:05:56.548Z,18.83
2018-02-18T19:08:22.757Z,16.80
2018-02-18T19:10:49.265Z,16.57
2018-02-18T19:13:15.682Z,15.33
2018-02-18T19:15:41.961Z,15.30
2018-02-18T19:18:08.234Z,16.48
2018-02-18T19:20:34.442Z,22.75
2018-02-18T19:23:00.653Z,17.43
2018-02-18T19:25:26.887Z,18.87
2018-02-18T19:27:53.891Z,16.47
2018-02-18T19:30:20.195Z,18.62
2018-02-18T19:32:46.452Z,14.60
2018-02-18T19:35:12.648Z,14.15
2018-02-18T19:37:38.855Z,14.48
2018-02-18T19:40:05.077Z,14.27
2018-02-18T19:42:31.363Z,15.13
2018-02-18T19:44:58.297Z,13.77
2018-02-18T19:47:25.424Z,13.70
2018-02-18T19:49:52.176Z,13.90
2018-02-18T19:52:19.417Z,13.95
2018-02-18T19:54:45.700Z,12.77
2018-02-18T19:57:12.950Z,14.13
2018-02-18T19:59:39.136Z,14.27
2018-02-18T20:02:05.530Z,12.60
2018-02-18T20:04:32.508Z,11.73
2018-02-18T20:06:58.777Z,14.13
2018-02-18T20:09:25.033Z,14.25
2018-02-18T20:11:51.995Z,14.97
2018-02-18T20:14:19.013Z,13.77
2018-02-18T20:16:45.358Z,13.93
2018-02-18T20:19:12.361Z,12.53
2018-02-18T20:21:38.677Z,13.63
2018-02-18T20:24:06.248Z,13.80
2018-02-18T20:26:33.804Z,12.80
2018-02-18T20:29:00.046Z,13.23
2018-02-18T20:31:26.372Z,13.25
2018-02-18T20:33:52.630Z,15.43
2018-02-18T20:36:19.039Z,13.13
2018-02-18T20:38:45.265Z,13.55
2018-02-18T20:41:11.544Z,13.60
2018-02-18T20:43:37.789Z,15.03
2018-02-18T20:46:04.102Z,13.52
2018-02-18T20:48:30.344Z,14.43
2018-02-18T20:50:56.780Z,14.60
2018-02-18T20:53:23.737Z,14.63
2018-02-18T20:55:50.991Z,13.85
2018-02-18T20:58:17.992Z,12.90
2018-02-18T21:00:44.336Z,14.55
2018-02-18T21:03:10.733Z,14.80
2018-02-18T21:05:37.688Z,15.00
2018-02-18T21:08:04.632Z,12.43
2018-02-18T21:10:31.008Z,13.10
2018-02-18T21:12:57.243Z,13.95
2018-02-18T21:15:23.519Z,12.45
2018-02-18T21:17:50.659Z,14.30
2018-02-18T21:20:16.941Z,12.50
2018-02-18T21:22:43.149Z,14.00
2018-02-18T21:25:09.554Z,13.17
2018-02-18T21:27:36.568Z,14.60
2018-02-18T21:30:02.750Z,13.88
2018-02-18T21:32:28.972Z,12.80
2018-02-18T21:34:56.597Z,13.68
2018-02-18T21:37:22.860Z,13.15
2018-02-18T21:39:49.897Z,13.80
2018-02-18T21:42:16.108Z,13.27
2018-02-18T21:44:43.044Z,13.57
2018-02-18T21:47:10.184Z,13.35
2018-02-18T21:49:36.383Z,13.35
2018-02-18T21:52:02.580Z,14.23
2018-02-18T21:54:28.979Z,13.55
2018-02-18T21:56:55.328Z,13.68
2018-02-18T21:59:21.533Z,13.18
2018-02-18T22:01:48.788Z,13.52
2018-02-18T22:04:14.988Z,13.93
2018-02-18T22:06:42.026Z,14.00
2018-02-18T22:09:09.307Z,14.60
2018-02-18T22:11:35.524Z,14.95
2018-02-18T22:14:01.791Z,14.23
2018-02-18T22:16:27.998Z,14.15
2018-02-18T22:18:55.164Z,13.75
2018-02-18T22:21:21.550Z,13.55
2018-02-18T22:23:47.859Z,13.07
2018-02-18T22:26:14.615Z,14.82
2018-02-18T22:28:41.628Z,14.05
2018-02-18T22:31:08.600Z,13.98
2018-02-18T22:33:34.803Z,13.23
2018-02-18T22:36:01.380Z,15.05
2018-02-18T22:38:27.594Z,14.63
2018-02-18T22:40:54.853Z,14.82
2018-02-18T22:43:21.784Z,14.65
2018-02-18T22:45:48.721Z,14.15
2018-02-18T22:48:14.932Z,14.35
2018-02-18T22:50:42.673Z,13.93
2018-02-18T22:53:09.010Z,13.25
2018-02-18T22:55:36.199Z,14.18
2018-02-18T22:58:02.442Z,14.13
2018-02-18T23:00:29.953Z,14.70
2018-02-18T23:02:56.312Z,14.27
2018-02-18T23:05:28.732Z,14.05
2018-02-18T23:07:55.702Z,13.52
2018-02-18T23:10:22.658Z,14.25
2018-02-18T23:12:50.352Z,13.70
2018-02-18T23:15:16.693Z,14.43
2018-02-18T23:17:44.554Z,14.57
2018-02-18T23:20:10.826Z,15.65
2018-02-18T23:22:37.284Z,13.95
2018-02-18T23:25:03.612Z,13.38
2018-02-18T23:27:29.816Z,15.80
2018-02-18T23:29:56.012Z,14.23
2018-02-18T23:32:22.949Z,14.27
2018-02-18T23:34:49.984Z,15.63
2018-02-18T23:37:16.535Z,14.20
2018-02-18T23:39:42.772Z,13.27
2018-02-18T23:42:11.548Z,14.20
2018-02-18T23:44:39.101Z,14.32
2018-02-18T23:47:06.072Z,14.38
2018-02-18T23:49:32.283Z,13.60
2018-02-18T23:51:58.507Z,13.80
2018-02-18T23:54:24.700Z,13.15
2018-02-18T23:56:50.905Z,13.43
2018-02-18T23:59:17.116Z,14.75
